createdAt,value
2022-10-23T00:00:38.690Z,1004.2
2022-10-23T00:01:54.941Z,1004.1
2022-10-23T00:03:11.179Z,1004.1
2022-10-23T00:04:27.424Z,1004.2
2022-10-23T00:05:43.664Z,1004.2
2022-10-23T00:06:59.895Z,1004.2
2022-10-23T00:08:15.154Z,1004.1
2022-10-23T00:09:31.384Z,1004.1
2022-10-23T00:10:47.637Z,1004.1
2022-10-23T00:12:03.871Z,1004.1
2022-10-23T00:13:20.112Z,1004.2
2022-10-23T00:14:36.360Z,1004.2
2022-10-23T00:15:52.591Z,1004.1
2022-10-23T00:17:08.835Z,1004.1
2022-10-23T00:18:25.069Z,1004.1
2022-10-23T00:19:41.303Z,1004.1
2022-10-23T00:20:57.550Z,1004.1
2022-10-23T00:22:13.783Z,1004.1
2022-10-23T00:23:30.024Z,1004.1
2022-10-23T00:24:45.286Z,1004.1
2022-10-23T00:26:01.533Z,1004.1
2022-10-23T00:27:17.759Z,1004
2022-10-23T00:28:33.993Z,1004
2022-10-23T00:29:50.234Z,1004.1
2022-10-23T00:31:06.487Z,1004
2022-10-23T00:32:22.732Z,1004.1
2022-10-23T00:33:38.971Z,1004.1
2022-10-23T00:34:55.197Z,1004.1
2022-10-23T00:36:11.439Z,1004.1
2022-10-23T00:37:27.692Z,1004.1
2022-10-23T00:38:43.924Z,1004.1
2022-10-23T00:40:00.153Z,1004.1
2022-10-23T00:41:15.424Z,1004.1
2022-10-23T00:42:31.645Z,1004.1
2022-10-23T00:43:47.884Z,1004.1
2022-10-23T00:45:04.128Z,1004.1
2022-10-23T00:46:20.374Z,1004.1
2022-10-23T00:47:36.609Z,1004.1
2022-10-23T00:48:52.855Z,1004.1
2022-10-23T00:50:09.102Z,1004.1
2022-10-23T00:51:25.326Z,1004
2022-10-23T00:52:41.573Z,1004
2022-10-23T00:53:57.819Z,1004
2022-10-23T00:55:14.049Z,1004
2022-10-23T00:56:30.298Z,1004
2022-10-23T00:57:45.540Z,1004.1
2022-10-23T00:59:01.777Z,1004
2022-10-23T01:00:18.035Z,1004
2022-10-23T01:01:34.262Z,1004
2022-10-23T01:02:50.507Z,1004
2022-10-23T01:04:06.742Z,1004
2022-10-23T01:05:22.979Z,1004
2022-10-23T01:06:39.224Z,1004
2022-10-23T01:07:55.455Z,1004
2022-10-23T01:09:11.711Z,1004.1
2022-10-23T01:10:27.937Z,1004
2022-10-23T01:11:44.175Z,1004.1
2022-10-23T01:13:00.417Z,1004.1
2022-10-23T01:14:15.674Z,1004
2022-10-23T01:15:31.916Z,1004.1
2022-10-23T01:16:48.155Z,1004.1
2022-10-23T01:18:04.390Z,1004.1
2022-10-23T01:19:20.631Z,1004.1
2022-10-23T01:20:36.867Z,1004.1
2022-10-23T01:21:53.116Z,1004.1
2022-10-23T01:23:09.365Z,1004.1
2022-10-23T01:24:25.603Z,1004.1
2022-10-23T01:25:41.833Z,1004.1
2022-10-23T01:26:58.078Z,1004.1
2022-10-23T01:28:14.315Z,1004
2022-10-23T01:29:30.549Z,1004.1
2022-10-23T01:30:45.803Z,1004
2022-10-23T01:32:02.059Z,1004
2022-10-23T01:33:18.279Z,1004
2022-10-23T01:34:34.531Z,1004
2022-10-23T01:35:50.766Z,1003.9
2022-10-23T01:37:07.014Z,1004
2022-10-23T01:38:23.238Z,1004
2022-10-23T01:39:39.480Z,1004
2022-10-23T01:40:55.732Z,1003.9
2022-10-23T01:42:11.958Z,1003.9
2022-10-23T01:43:28.199Z,1003.9
2022-10-23T01:44:44.435Z,1003.9
2022-10-23T01:46:00.680Z,1004
2022-10-23T01:47:15.951Z,1003.9
2022-10-23T01:48:32.174Z,1003.9
2022-10-23T01:49:48.426Z,1003.9
2022-10-23T01:51:04.653Z,1003.9
2022-10-23T01:52:20.890Z,1003.9
2022-10-23T01:53:37.138Z,1003.8
2022-10-23T01:54:53.390Z,1003.9
2022-10-23T01:56:09.613Z,1003.9
2022-10-23T01:57:25.856Z,1003.9
2022-10-23T01:58:42.091Z,1003.9
2022-10-23T01:59:58.330Z,1003.9
2022-10-23T02:01:14.575Z,1003.9
2022-10-23T02:02:30.813Z,1004
2022-10-23T02:03:46.064Z,1004
2022-10-23T02:05:02.319Z,1004
2022-10-23T02:06:18.559Z,1004
2022-10-23T02:07:34.787Z,1003.9
2022-10-23T02:08:51.034Z,1003.9
2022-10-23T02:10:07.269Z,1003.9
2022-10-23T02:11:23.512Z,1003.9
2022-10-23T02:12:39.752Z,1003.9
2022-10-23T02:13:55.998Z,1004
2022-10-23T02:15:12.227Z,1004
2022-10-23T02:16:28.467Z,1003.9
2022-10-23T02:17:44.712Z,1003.9
2022-10-23T02:19:00.942Z,1003.9
2022-10-23T02:20:16.203Z,1003.9
2022-10-23T02:21:32.442Z,1003.8
2022-10-23T02:22:48.679Z,1003.8
2022-10-23T02:24:04.916Z,1003.8
2022-10-23T02:25:21.169Z,1003.8
2022-10-23T02:26:37.393Z,1003.8
2022-10-23T02:27:53.641Z,1003.8
2022-10-23T02:29:09.878Z,1003.8
2022-10-23T02:30:26.125Z,1003.8
2022-10-23T02:31:42.365Z,1003.8
2022-10-23T02:32:58.600Z,1003.8
2022-10-23T02:34:14.830Z,1003.7
2022-10-23T02:35:31.077Z,1003.7
2022-10-23T02:36:46.324Z,1003.8
2022-10-23T02:38:02.581Z,1003.7
2022-10-23T02:39:18.809Z,1003.7
2022-10-23T02:40:35.057Z,1003.7
2022-10-23T02:41:51.299Z,1003.6
2022-10-23T02:43:07.532Z,1003.6
2022-10-23T02:44:23.763Z,1003.6
2022-10-23T02:45:40.012Z,1003.6
2022-10-23T02:46:56.245Z,1003.7
2022-10-23T02:48:12.483Z,1003.7
2022-10-23T02:49:28.722Z,1003.6
2022-10-23T02:50:44.965Z,1003.6
2022-10-23T02:52:01.207Z,1003.6
2022-10-23T02:53:16.475Z,1003.6
2022-10-23T02:54:32.697Z,1003.7
2022-10-23T02:55:48.954Z,1003.7
2022-10-23T02:57:05.186Z,1003.7
2022-10-23T02:58:21.418Z,1003.7
2022-10-23T02:59:37.660Z,1003.7
2022-10-23T03:00:53.896Z,1003.7
2022-10-23T03:02:10.143Z,1003.6
2022-10-23T03:03:26.377Z,1003.7
2022-10-23T03:04:42.624Z,1003.7
2022-10-23T03:05:58.875Z,1003.7
2022-10-23T03:07:15.103Z,1003.7
2022-10-23T03:08:31.352Z,1003.6
2022-10-23T03:09:46.591Z,1003.6
2022-10-23T03:11:02.837Z,1003.6
2022-10-23T03:12:19.070Z,1003.6
2022-10-23T03:13:35.316Z,1003.6
2022-10-23T03:14:51.562Z,1003.6
2022-10-23T03:16:07.788Z,1003.6
2022-10-23T03:17:24.026Z,1003.6
2022-10-23T03:18:40.272Z,1003.6
2022-10-23T03:19:56.506Z,1003.6
2022-10-23T03:21:12.750Z,1003.6
2022-10-23T03:22:28.993Z,1003.7
2022-10-23T03:23:45.239Z,1003.6
2022-10-23T03:25:01.474Z,1003.6
2022-10-23T03:26:16.732Z,1003.6
2022-10-23T03:27:32.972Z,1003.5
2022-10-23T03:28:49.209Z,1003.5
2022-10-23T03:30:05.440Z,1003.6
2022-10-23T03:31:21.695Z,1003.6
2022-10-23T03:32:37.924Z,1003.6
2022-10-23T03:33:53.193Z,1003.6
2022-10-23T03:35:09.424Z,1003.6
2022-10-23T03:36:25.667Z,1003.6
2022-10-23T03:37:41.902Z,1003.6
2022-10-23T03:38:58.150Z,1003.6
2022-10-23T03:40:14.380Z,1003.7
2022-10-23T03:41:30.625Z,1003.7
2022-10-23T03:42:46.862Z,1003.7
2022-10-23T03:44:03.100Z,1003.7
2022-10-23T03:45:19.346Z,1003.8
2022-10-23T03:46:35.587Z,1003.6
2022-10-23T03:47:51.821Z,1003.6
2022-10-23T03:49:08.069Z,1003.6
2022-10-23T03:50:23.318Z,1003.5
2022-10-23T03:51:39.568Z,1003.5
2022-10-23T03:52:55.806Z,1003.5
2022-10-23T03:54:12.038Z,1003.5
2022-10-23T03:55:28.278Z,1003.5
2022-10-23T03:56:44.517Z,1003.5
2022-10-23T03:58:00.767Z,1003.4
2022-10-23T03:59:16.995Z,1003.4
2022-10-23T04:00:33.238Z,1003.4
2022-10-23T04:01:49.470Z,1003.4
2022-10-23T04:03:05.720Z,1003.4
2022-10-23T04:04:21.969Z,1003.4
2022-10-23T04:05:38.200Z,1003.4
2022-10-23T04:06:53.441Z,1003.4
2022-10-23T04:08:09.689Z,1003.4
2022-10-23T04:09:25.946Z,1003.4
2022-10-23T04:10:42.179Z,1003.4
2022-10-23T04:11:58.418Z,1003.4
2022-10-23T04:13:14.654Z,1003.4
2022-10-23T04:14:30.900Z,1003.4
2022-10-23T04:15:47.119Z,1003.5
2022-10-23T04:17:03.373Z,1003.5
2022-10-23T04:18:19.600Z,1003.5
2022-10-23T04:20:52.079Z,1003.6
2022-10-23T04:28:29.533Z,1003.6
2022-10-23T04:29:45.762Z,1003.5
2022-10-23T04:31:02.006Z,1003.6
2022-10-23T04:32:18.251Z,1003.7
2022-10-23T04:33:34.482Z,1003.7
2022-10-23T04:39:55.672Z,1003.6
2022-10-23T04:41:11.928Z,1003.6
2022-10-23T04:43:44.397Z,1003.6
2022-10-23T04:45:00.645Z,1003.6
2022-10-23T04:46:16.871Z,1003.6
2022-10-23T04:53:54.383Z,1003.5
2022-10-23T04:56:26.995Z,1003.6
2022-10-23T04:57:43.291Z,1003.5
2022-10-23T04:58:59.591Z,1003.6
2022-10-23T05:00:15.898Z,1003.5
2022-10-23T05:02:48.502Z,1003.5
2022-10-23T05:04:04.788Z,1003.5
2022-10-23T05:09:09.994Z,1003.5
2022-10-23T05:11:42.837Z,1003.4
2022-10-23T05:14:15.652Z,1003.6
2022-10-23T05:16:48.498Z,1003.6
2022-10-23T05:18:04.028Z,1003.5
2022-10-23T05:19:20.449Z,1003.5
2022-10-23T05:20:36.851Z,1003.4
2022-10-23T05:21:53.278Z,1003.4
2022-10-23T05:23:09.675Z,1003.4
2022-10-23T05:24:26.107Z,1003.4
2022-10-23T05:26:58.926Z,1003.3
2022-10-23T05:29:31.757Z,1003.3
2022-10-23T05:32:04.595Z,1003.3
2022-10-23T05:33:21.009Z,1003.2
2022-10-23T05:37:10.243Z,1003.3
2022-10-23T05:38:25.790Z,1003.3
2022-10-23T05:39:42.327Z,1003.3
2022-10-23T05:40:57.698Z,1003.3
2022-10-23T05:42:12.978Z,1003.3
2022-10-23T05:43:29.211Z,1003.3
2022-10-23T05:44:45.431Z,1003.4
2022-10-23T05:46:01.686Z,1003.4
2022-10-23T05:47:17.911Z,1003.4
2022-10-23T05:48:34.143Z,1003.3
2022-10-23T05:49:50.386Z,1003.4
2022-10-23T05:51:06.633Z,1003.4
2022-10-23T05:52:22.879Z,1003.3
2022-10-23T05:53:39.128Z,1003.3
2022-10-23T05:54:54.376Z,1003.3
2022-10-23T05:56:09.639Z,1003.3
2022-10-23T05:57:25.867Z,1003.3
2022-10-23T05:58:42.113Z,1003.3
2022-10-23T05:59:58.340Z,1003.3
2022-10-23T06:01:14.584Z,1003.3
2022-10-23T06:02:30.818Z,1003.2
2022-10-23T06:03:47.056Z,1003.2
2022-10-23T06:05:03.302Z,1003.2
2022-10-23T06:06:19.553Z,1003.2
2022-10-23T06:07:35.811Z,1003.2
2022-10-23T06:08:51.038Z,1003.2
2022-10-23T06:10:06.307Z,1003.3
2022-10-23T06:11:22.539Z,1003.3
2022-10-23T06:12:38.786Z,1003.3
2022-10-23T06:13:55.026Z,1003.3
2022-10-23T06:15:11.266Z,1003.3
2022-10-23T06:16:27.493Z,1003.3
2022-10-23T06:17:43.740Z,1003.3
2022-10-23T06:18:59.987Z,1003.2
2022-10-23T06:20:16.216Z,1003.3
2022-10-23T06:21:32.471Z,1003.3
2022-10-23T06:22:47.716Z,1003.3
2022-10-23T06:24:02.994Z,1003.3
2022-10-23T06:25:19.213Z,1003.3
2022-10-23T06:26:35.449Z,1003.3
2022-10-23T06:27:51.702Z,1003.3
2022-10-23T06:29:07.939Z,1003.3
2022-10-23T06:30:24.182Z,1003.3
2022-10-23T06:31:40.435Z,1003.4
2022-10-23T06:32:56.663Z,1003.3
2022-10-23T06:34:12.912Z,1003.3
2022-10-23T06:35:29.128Z,1003.3
2022-10-23T06:36:45.380Z,1003.2
2022-10-23T06:38:01.620Z,1003.2
2022-10-23T06:39:17.841Z,1003.3
2022-10-23T06:40:33.106Z,1003.3
2022-10-23T06:41:49.362Z,1003.3
2022-10-23T06:43:05.585Z,1003.4
2022-10-23T06:44:21.836Z,1003.4
2022-10-23T06:45:38.061Z,1003.4
2022-10-23T06:46:54.317Z,1003.4
2022-10-23T06:48:10.550Z,1003.4
2022-10-23T06:49:25.812Z,1003.4
2022-10-23T06:50:41.057Z,1003.5
2022-10-23T06:51:56.347Z,1003.5
2022-10-23T06:53:11.567Z,1003.5
2022-10-23T06:54:27.808Z,1003.4
2022-10-23T06:55:44.070Z,1003.5
2022-10-23T06:57:00.321Z,1003.5
2022-10-23T06:58:16.540Z,1003.5
2022-10-23T06:59:32.771Z,1003.5
2022-10-23T07:00:49.008Z,1003.5
2022-10-23T07:02:05.277Z,1003.5
2022-10-23T07:03:21.500Z,1003.5
2022-10-23T07:04:37.750Z,1003.5
2022-10-23T07:05:53.973Z,1003.5
2022-10-23T07:07:10.225Z,1003.5
2022-10-23T07:08:26.452Z,1003.4
2022-10-23T07:09:41.737Z,1003.4
2022-10-23T07:10:57.949Z,1003.5
2022-10-23T07:12:14.205Z,1003.5
2022-10-23T07:13:30.439Z,1003.5
2022-10-23T07:14:46.680Z,1003.4
2022-10-23T07:16:02.926Z,1003.5
2022-10-23T07:17:19.155Z,1003.4
2022-10-23T07:18:34.419Z,1003.5
2022-10-23T07:19:49.658Z,1003.4
2022-10-23T07:21:05.914Z,1003.4
2022-10-23T07:22:22.166Z,1003.4
2022-10-23T07:23:38.392Z,1003.4
2022-10-23T07:24:54.643Z,1003.3
2022-10-23T07:26:10.853Z,1003.3
2022-10-23T07:27:27.119Z,1003.3
2022-10-23T07:28:43.341Z,1003.3
2022-10-23T07:29:59.592Z,1003.3
2022-10-23T07:31:15.845Z,1003.3
2022-10-23T07:32:32.053Z,1003.4
2022-10-23T07:33:48.310Z,1003.4
2022-10-23T07:35:04.546Z,1003.4
2022-10-23T07:36:19.788Z,1003.4
2022-10-23T07:37:36.047Z,1003.5
2022-10-23T07:38:52.268Z,1003.5
2022-10-23T07:40:08.536Z,1003.5
2022-10-23T07:41:24.759Z,1003.4
2022-10-23T07:42:41.005Z,1003.4
2022-10-23T07:43:57.231Z,1003.4
2022-10-23T07:45:12.489Z,1003.4
2022-10-23T07:46:27.756Z,1003.4
2022-10-23T07:47:43.995Z,1003.4
2022-10-23T07:48:59.253Z,1003.4
2022-10-23T07:50:15.513Z,1003.4
2022-10-23T07:51:31.725Z,1003.4
2022-10-23T07:52:47.967Z,1003.5
2022-10-23T07:54:04.203Z,1003.5
2022-10-23T07:55:20.452Z,1003.5
2022-10-23T07:56:36.688Z,1003.5
2022-10-23T07:57:52.933Z,1003.5
2022-10-23T07:59:09.166Z,1003.5
2022-10-23T08:00:25.416Z,1003.4
2022-10-23T08:01:41.651Z,1003.5
2022-10-23T08:02:57.895Z,1003.5
2022-10-23T08:04:14.111Z,1003.5
2022-10-23T08:05:29.401Z,1003.5
2022-10-23T08:06:45.623Z,1003.5
2022-10-23T08:08:01.875Z,1003.5
2022-10-23T08:09:18.107Z,1003.4
2022-10-23T08:10:34.339Z,1003.4
2022-10-23T08:11:49.593Z,1003.4
2022-10-23T08:13:04.847Z,1003.4
2022-10-23T08:14:21.094Z,1003.3
2022-10-23T08:15:37.336Z,1003.4
2022-10-23T08:16:53.576Z,1003.3
2022-10-23T08:18:09.809Z,1003.3
2022-10-23T08:19:26.052Z,1003.3
2022-10-23T08:20:42.000Z,1003.2
2022-10-23T08:21:58.521Z,1003.2
2022-10-23T08:23:14.762Z,1003.1
2022-10-23T08:24:31.007Z,1003.1
2022-10-23T08:25:47.249Z,1003.1
2022-10-23T08:27:03.491Z,1003.1
2022-10-23T08:28:19.725Z,1003
2022-10-23T08:29:34.984Z,1003
2022-10-23T08:30:51.226Z,1003
2022-10-23T08:32:07.458Z,1003
2022-10-23T08:33:23.690Z,1003
2022-10-23T08:34:39.928Z,1003
2022-10-23T08:35:56.180Z,1003
2022-10-23T08:37:12.407Z,1003
2022-10-23T08:38:27.682Z,1002.9
2022-10-23T08:39:42.929Z,1003
2022-10-23T08:40:58.205Z,1002.9
2022-10-23T08:42:13.456Z,1002.9
2022-10-23T08:43:29.685Z,1002.9
2022-10-23T08:44:45.937Z,1002.9
2022-10-23T08:46:02.179Z,1002.9
2022-10-23T08:47:18.415Z,1002.9
2022-10-23T08:48:34.644Z,1003
2022-10-23T08:49:50.891Z,1003
2022-10-23T08:51:07.149Z,1002.9
2022-10-23T08:52:23.373Z,1002.9
2022-10-23T08:53:39.603Z,1002.9
2022-10-23T08:54:55.832Z,1002.9
2022-10-23T08:56:12.101Z,1002.8
2022-10-23T08:57:28.325Z,1002.9
2022-10-23T08:58:43.584Z,1002.9
2022-10-23T08:59:59.818Z,1002.9
2022-10-23T09:01:16.061Z,1002.9
2022-10-23T09:02:32.293Z,1002.9
2022-10-23T09:03:48.530Z,1002.8
2022-10-23T09:05:04.779Z,1002.9
2022-10-23T09:06:21.002Z,1002.7
2022-10-23T09:07:36.264Z,1002.8
2022-10-23T09:08:51.535Z,1002.8
2022-10-23T09:10:07.770Z,1002.9
2022-10-23T09:11:24.014Z,1003
2022-10-23T09:12:40.238Z,1002.9
2022-10-23T09:13:56.498Z,1003
2022-10-23T09:15:12.731Z,1002.9
2022-10-23T09:16:28.977Z,1003
2022-10-23T09:17:45.222Z,1003
2022-10-23T09:19:01.434Z,1003
2022-10-23T09:20:17.688Z,1003
2022-10-23T09:21:33.916Z,1003.1
2022-10-23T09:22:50.161Z,1003
2022-10-23T09:24:06.406Z,1003
2022-10-23T09:25:21.665Z,1003
2022-10-23T09:26:37.906Z,1003
2022-10-23T09:27:54.142Z,1002.9
2022-10-23T09:29:10.368Z,1002.9
2022-10-23T09:30:26.613Z,1002.9
2022-10-23T09:31:42.866Z,1002.8
2022-10-23T09:32:59.086Z,1002.9
2022-10-23T09:34:15.333Z,1002.9
2022-10-23T09:35:31.559Z,1003
2022-10-23T09:36:47.807Z,1002.9
2022-10-23T09:38:04.041Z,1002.8
2022-10-23T09:39:20.279Z,1002.8
2022-10-23T09:40:36.517Z,1002.8
2022-10-23T09:41:51.795Z,1002.8
2022-10-23T09:43:08.018Z,1002.8
2022-10-23T09:44:24.259Z,1002.9
2022-10-23T09:45:40.505Z,1002.9
2022-10-23T09:46:56.739Z,1002.9
2022-10-23T09:48:12.972Z,1002.9
2022-10-23T09:49:29.215Z,1002.9
2022-10-23T09:50:45.455Z,1002.8
2022-10-23T09:52:01.705Z,1002.8
2022-10-23T09:53:17.943Z,1002.8
2022-10-23T09:54:34.190Z,1002.8
2022-10-23T09:55:50.405Z,1002.8
2022-10-23T09:57:06.658Z,1002.8
2022-10-23T09:58:21.896Z,1002.8
2022-10-23T09:59:38.151Z,1002.8
2022-10-23T10:00:54.376Z,1002.8
2022-10-23T10:02:10.616Z,1002.8
2022-10-23T10:03:26.879Z,1002.8
2022-10-23T10:04:43.103Z,1002.8
2022-10-23T10:05:59.346Z,1002.8
2022-10-23T10:07:15.587Z,1002.8
2022-10-23T10:08:31.829Z,1002.8
2022-10-23T10:09:48.055Z,1002.7
2022-10-23T10:11:04.305Z,1002.7
2022-10-23T10:12:20.535Z,1002.7
2022-10-23T10:13:36.781Z,1002.7
2022-10-23T10:14:52.025Z,1002.7
2022-10-23T10:16:08.277Z,1002.7
2022-10-23T10:17:24.518Z,1002.6
2022-10-23T10:18:40.753Z,1002.6
2022-10-23T10:19:56.994Z,1002.6
2022-10-23T10:21:13.234Z,1002.5
2022-10-23T10:22:29.470Z,1002.5
2022-10-23T10:23:45.710Z,1002.4
2022-10-23T10:25:01.947Z,1002.4
2022-10-23T10:26:18.188Z,1002.4
2022-10-23T10:27:34.420Z,1002.3
2022-10-23T10:28:50.677Z,1002.3
2022-10-23T10:30:06.916Z,1002.3
2022-10-23T10:31:22.172Z,1002.2
2022-10-23T10:32:38.398Z,1002.2
2022-10-23T10:33:54.641Z,1002.1
2022-10-23T10:35:10.880Z,1002.1
2022-10-23T10:36:27.112Z,1002.1
2022-10-23T10:37:43.356Z,1002.1
2022-10-23T10:38:59.600Z,1002.1
2022-10-23T10:40:15.828Z,1002.1
2022-10-23T10:41:32.071Z,1002.2
2022-10-23T10:42:48.311Z,1002.1
2022-10-23T10:44:04.564Z,1002.1
2022-10-23T10:45:20.800Z,1002.1
2022-10-23T10:46:37.023Z,1002.1
2022-10-23T10:47:52.282Z,1002.1
2022-10-23T10:49:08.525Z,1002.1
2022-10-23T10:50:24.771Z,1002
2022-10-23T10:51:41.000Z,1002.1
2022-10-23T10:52:57.252Z,1002.1
2022-10-23T10:54:13.501Z,1002.1
2022-10-23T10:55:29.720Z,1002
2022-10-23T10:56:45.971Z,1002
2022-10-23T10:58:02.201Z,1001.9
2022-10-23T10:59:18.441Z,1001.9
2022-10-23T11:00:34.664Z,1001.9
2022-10-23T11:01:50.927Z,1001.9
2022-10-23T11:03:07.140Z,1001.8
2022-10-23T11:04:22.405Z,1001.8
2022-10-23T11:05:38.635Z,1001.9
2022-10-23T11:06:54.883Z,1001.9
2022-10-23T11:08:11.124Z,1001.8
2022-10-23T11:09:27.353Z,1001.8
2022-10-23T11:10:43.604Z,1001.9
2022-10-23T11:11:59.832Z,1001.9
2022-10-23T11:13:16.095Z,1001.9
2022-10-23T11:14:32.324Z,1001.8
2022-10-23T11:15:48.565Z,1001.8
2022-10-23T11:17:04.812Z,1001.7
2022-10-23T11:18:21.046Z,1001.8
2022-10-23T11:19:37.268Z,1001.7
2022-10-23T11:20:52.548Z,1001.8
2022-10-23T11:22:08.788Z,1001.8
2022-10-23T11:23:25.001Z,1001.7
2022-10-23T11:24:41.262Z,1001.7
2022-10-23T11:25:57.499Z,1001.7
2022-10-23T11:27:13.731Z,1001.6
2022-10-23T11:28:29.969Z,1001.6
2022-10-23T11:29:46.215Z,1001.5
2022-10-23T11:31:02.453Z,1001.5
2022-10-23T11:32:18.704Z,1001.5
2022-10-23T11:33:34.935Z,1001.4
2022-10-23T11:34:51.171Z,1001.5
2022-10-23T11:36:07.419Z,1001.5
2022-10-23T11:37:22.671Z,1001.6
2022-10-23T11:38:38.903Z,1001.6
2022-10-23T11:39:55.149Z,1001.5
2022-10-23T11:41:11.392Z,1001.6
2022-10-23T11:42:27.630Z,1001.6
2022-10-23T11:43:43.848Z,1001.6
2022-10-23T11:45:00.106Z,1001.5
2022-10-23T11:46:16.345Z,1001.5
2022-10-23T11:47:32.580Z,1001.3
2022-10-23T11:48:48.801Z,1001.4
2022-10-23T11:50:05.053Z,1001.4
2022-10-23T11:51:21.287Z,1001.3
2022-10-23T11:52:37.536Z,1001.3
2022-10-23T11:53:52.775Z,1001.2
2022-10-23T11:55:09.043Z,1001.2
2022-10-23T11:56:25.255Z,1001.2
2022-10-23T11:57:41.518Z,1001.2
2022-10-23T11:58:57.750Z,1001.1
2022-10-23T12:00:13.993Z,1001.1
2022-10-23T12:01:30.220Z,1001.1
2022-10-23T12:02:46.470Z,1001.1
2022-10-23T12:04:01.720Z,1001
2022-10-23T12:05:17.958Z,1001.1
2022-10-23T12:06:34.188Z,1001
2022-10-23T12:07:50.450Z,1000.9
2022-10-23T12:09:06.677Z,1000.9
2022-10-23T12:10:22.932Z,1000.9
2022-10-23T12:11:39.158Z,1000.8
2022-10-23T12:12:55.388Z,1000.7
2022-10-23T12:14:11.626Z,1000.7
2022-10-23T12:15:27.878Z,1000.6
2022-10-23T12:16:44.115Z,1000.6
2022-10-23T12:18:00.352Z,1000.6
2022-10-23T12:19:16.596Z,1000.6
2022-10-23T12:20:31.841Z,1000.6
2022-10-23T12:21:48.091Z,1000.5
2022-10-23T12:23:04.332Z,1000.5
2022-10-23T12:24:20.566Z,1000.5
2022-10-23T12:25:36.814Z,1000.6
2022-10-23T12:26:53.050Z,1000.5
2022-10-23T12:28:09.288Z,1000.5
2022-10-23T12:29:25.516Z,1000.5
2022-10-23T12:30:41.760Z,1000.5
2022-10-23T12:31:58.009Z,1000.6
2022-10-23T12:33:14.255Z,1000.5
2022-10-23T12:34:30.484Z,1000.5
2022-10-23T12:35:46.715Z,1000.5
2022-10-23T12:37:01.970Z,1000.5
2022-10-23T12:38:18.210Z,1000.4
2022-10-23T12:39:34.440Z,1000.4
2022-10-23T12:40:50.691Z,1000.4
2022-10-23T12:42:06.926Z,1000.4
2022-10-23T12:43:23.166Z,1000.4
2022-10-23T12:44:39.399Z,1000.5
2022-10-23T12:45:55.636Z,1000.5
2022-10-23T12:47:11.889Z,1000.5
2022-10-23T12:48:28.129Z,1000.5
2022-10-23T12:49:44.371Z,1000.4
2022-10-23T12:51:00.598Z,1000.4
2022-10-23T12:52:16.832Z,1000.4
2022-10-23T12:53:32.097Z,1000.4
2022-10-23T12:54:48.332Z,1000.3
2022-10-23T12:56:04.588Z,1000.3
2022-10-23T12:57:20.811Z,1000.3
2022-10-23T12:58:37.059Z,1000.3
2022-10-23T12:59:53.298Z,1000.2
2022-10-23T13:01:09.542Z,1000.2
2022-10-23T13:02:25.774Z,1000.3
2022-10-23T13:03:42.021Z,1000.2
2022-10-23T13:04:58.251Z,1000.2
2022-10-23T13:06:14.480Z,1000.2
2022-10-23T13:07:30.720Z,1000.1
2022-10-23T13:08:46.981Z,1000.1
2022-10-23T13:10:02.216Z,1000.1
2022-10-23T13:11:18.476Z,1000.1
2022-10-23T13:12:34.709Z,1000.1
2022-10-23T13:13:50.940Z,1000
2022-10-23T13:15:07.191Z,1000.1
2022-10-23T13:16:23.429Z,1000.1
2022-10-23T13:17:39.658Z,1000
2022-10-23T13:18:55.907Z,1000
2022-10-23T13:20:12.136Z,1000.1
2022-10-23T13:21:28.378Z,1000
2022-10-23T13:22:44.604Z,1000
2022-10-23T13:24:00.870Z,1000.1
2022-10-23T13:25:17.088Z,1000.1
2022-10-23T13:26:32.349Z,1000.1
2022-10-23T13:27:48.605Z,1000.1
2022-10-23T13:29:04.814Z,1000
2022-10-23T13:30:21.057Z,1000.1
2022-10-23T13:31:37.316Z,1000.1
2022-10-23T13:32:53.544Z,1000.1
2022-10-23T13:34:09.790Z,1000.1
2022-10-23T13:35:26.017Z,1000
2022-10-23T13:36:42.248Z,1000
2022-10-23T13:37:58.504Z,1000
2022-10-23T13:39:14.740Z,1000
2022-10-23T13:40:30.990Z,1000
2022-10-23T13:41:47.218Z,1000
2022-10-23T13:43:02.463Z,999.9
2022-10-23T13:44:18.714Z,1000
2022-10-23T13:45:34.947Z,999.9
2022-10-23T13:46:51.203Z,1000
2022-10-23T13:48:07.438Z,999.9
2022-10-23T13:49:23.677Z,1000
2022-10-23T13:50:39.895Z,1000
2022-10-23T13:51:56.145Z,999.9
2022-10-23T13:53:12.395Z,999.9
2022-10-23T13:54:28.641Z,999.9
2022-10-23T13:55:44.854Z,999.9
2022-10-23T13:57:01.120Z,999.8
2022-10-23T13:58:17.344Z,999.8
2022-10-23T13:59:32.596Z,999.7
2022-10-23T14:00:48.000Z,999.7
2022-10-23T14:02:05.075Z,999.7
2022-10-23T14:03:21.314Z,999.6
2022-10-23T14:04:37.572Z,999.7
2022-10-23T14:05:53.804Z,999.7
2022-10-23T14:07:10.040Z,999.7
2022-10-23T14:08:26.266Z,999.7
2022-10-23T14:09:42.521Z,999.7
2022-10-23T14:10:58.745Z,999.7
2022-10-23T14:12:14.994Z,999.7
2022-10-23T14:13:31.240Z,999.6
2022-10-23T14:14:47.484Z,999.7
2022-10-23T14:16:02.725Z,999.6
2022-10-23T14:17:18.971Z,999.6
2022-10-23T14:18:35.220Z,999.6
2022-10-23T14:19:51.453Z,999.5
2022-10-23T14:21:07.683Z,999.5
2022-10-23T14:22:23.934Z,999.6
2022-10-23T14:23:40.147Z,999.6
2022-10-23T14:24:56.409Z,999.6
2022-10-23T14:26:12.644Z,999.5
2022-10-23T14:27:28.885Z,999.6
2022-10-23T14:28:45.118Z,999.6
2022-10-23T14:30:01.346Z,999.5
2022-10-23T14:31:17.613Z,999.5
2022-10-23T14:32:32.849Z,999.4
2022-10-23T14:33:49.093Z,999.4
2022-10-23T14:35:05.337Z,999.4
2022-10-23T14:36:21.577Z,999.3
2022-10-23T14:37:37.819Z,999.3
2022-10-23T14:38:54.048Z,999.2
2022-10-23T14:40:10.297Z,999.2
2022-10-23T14:41:26.529Z,999.2
2022-10-23T14:42:42.780Z,999.2
2022-10-23T14:43:59.008Z,999.2
2022-10-23T14:45:15.234Z,999.2
2022-10-23T14:46:31.472Z,999.1
2022-10-23T14:47:47.729Z,999.1
2022-10-23T14:49:02.968Z,999.1
2022-10-23T14:50:19.230Z,999.1
2022-10-23T14:51:35.454Z,999.1
2022-10-23T14:52:51.701Z,999.2
2022-10-23T14:54:07.950Z,999.2
2022-10-23T14:55:24.190Z,999.2
2022-10-23T14:56:40.410Z,999.2
2022-10-23T14:57:56.667Z,999.2
2022-10-23T14:59:12.895Z,999.2
2022-10-23T15:00:29.142Z,999.2
2022-10-23T15:01:45.370Z,999.2
2022-10-23T15:03:01.613Z,999.2
2022-10-23T15:04:17.850Z,999.2
2022-10-23T15:05:33.113Z,999.2
2022-10-23T15:06:49.353Z,999.2
2022-10-23T15:08:05.573Z,999.2
2022-10-23T15:09:21.827Z,999.2
2022-10-23T15:10:38.066Z,999.2
2022-10-23T15:11:54.289Z,999.2
2022-10-23T15:13:10.557Z,999.2
2022-10-23T15:14:26.766Z,999.1
2022-10-23T15:15:43.015Z,999.1
2022-10-23T15:16:59.252Z,999
2022-10-23T15:18:15.511Z,999
2022-10-23T15:19:31.751Z,999
2022-10-23T15:20:47.986Z,999
2022-10-23T15:22:03.238Z,999
2022-10-23T15:23:19.472Z,999
2022-10-23T15:24:35.717Z,999.1
2022-10-23T15:25:51.954Z,999.1
2022-10-23T15:27:08.200Z,999.1
2022-10-23T15:28:24.437Z,999.1
2022-10-23T15:29:40.669Z,999.1
2022-10-23T15:30:56.899Z,999.1
2022-10-23T15:32:13.135Z,999
2022-10-23T15:33:29.391Z,999
2022-10-23T15:34:45.622Z,999
2022-10-23T15:36:01.877Z,999
2022-10-23T15:37:18.103Z,999
2022-10-23T15:38:33.366Z,999
2022-10-23T15:39:49.589Z,999
2022-10-23T15:41:05.847Z,999
2022-10-23T15:42:22.079Z,998.9
2022-10-23T15:43:38.322Z,998.9
2022-10-23T15:44:54.547Z,998.9
2022-10-23T15:46:10.804Z,999
2022-10-23T15:47:27.039Z,999
2022-10-23T15:48:43.286Z,998.9
2022-10-23T15:49:59.517Z,998.9
2022-10-23T15:51:15.754Z,998.9
2022-10-23T15:52:31.989Z,998.9
2022-10-23T15:53:48.235Z,998.9
2022-10-23T15:55:03.480Z,998.9
2022-10-23T15:56:19.735Z,998.8
2022-10-23T15:57:35.958Z,998.9
2022-10-23T15:58:52.210Z,998.9
2022-10-23T16:00:08.455Z,998.8
2022-10-23T16:01:24.668Z,998.8
2022-10-23T16:02:40.930Z,998.8
2022-10-23T16:03:57.174Z,998.9
2022-10-23T16:05:13.395Z,998.8
2022-10-23T16:06:29.656Z,998.8
2022-10-23T16:07:45.876Z,998.9
2022-10-23T16:09:02.110Z,998.8
2022-10-23T16:10:18.357Z,998.8
2022-10-23T16:11:33.618Z,998.8
2022-10-23T16:12:49.850Z,998.7
2022-10-23T16:14:06.099Z,998.6
2022-10-23T16:15:22.324Z,998.5
2022-10-23T16:16:38.567Z,998.5
2022-10-23T16:17:54.794Z,998.5
2022-10-23T16:19:10.069Z,998.5
2022-10-23T16:20:26.298Z,998.4
2022-10-23T16:21:42.541Z,998.4
2022-10-23T16:22:58.777Z,998.4
2022-10-23T16:24:15.028Z,998.4
2022-10-23T16:25:31.260Z,998.4
2022-10-23T16:26:47.501Z,998.3
2022-10-23T16:28:03.736Z,998.3
2022-10-23T16:29:19.978Z,998.2
2022-10-23T16:30:36.220Z,998.2
2022-10-23T16:31:52.454Z,998.3
2022-10-23T16:33:08.701Z,998.3
2022-10-23T16:34:24.937Z,998.2
2022-10-23T16:35:40.192Z,998.2
2022-10-23T16:36:56.441Z,998.1
2022-10-23T16:38:12.664Z,998.1
2022-10-23T16:39:28.915Z,998.1